createdAt,value
2023-08-02T00:04:11.320Z,98711.84
2023-08-02T00:09:14.957Z,98718.98
2023-08-02T00:14:17.998Z,98719.34
2023-08-02T00:19:20.901Z,98723.48
2023-08-02T00:24:23.749Z,98728.04
2023-08-02T00:29:26.820Z,98732.59
2023-08-02T00:34:29.683Z,98728.20
2023-08-02T00:39:32.535Z,98727.65
2023-08-02T00:44:35.409Z,98732.81
2023-08-02T00:49:38.410Z,98733.11
2023-08-02T00:54:43.196Z,98738.52
2023-08-02T00:59:46.140Z,98742.61
2023-08-02T01:04:49.511Z,98755.98
2023-08-02T01:10:13.935Z,98763.96
2023-08-02T01:15:18.126Z,98760.93
2023-08-02T01:20:20.985Z,98757.52
2023-08-02T01:25:26.632Z,98765.69
2023-08-02T01:30:34.952Z,98769.23
2023-08-02T01:35:38.559Z,98775.30
2023-08-02T01:40:41.512Z,98778.65
2023-08-02T01:45:44.433Z,98777.92
2023-08-02T01:50:47.713Z,98778.45
2023-08-02T01:55:50.596Z,98778.04
2023-08-02T02:00:53.543Z,98783.95
2023-08-02T02:05:56.544Z,98792.36
2023-08-02T02:10:59.791Z,98801.88
2023-08-02T02:16:02.775Z,98809.58
2023-08-02T02:21:06.044Z,98821.20
2023-08-02T02:26:09.672Z,98825.48
2023-08-02T02:31:12.507Z,98817.08
2023-08-02T02:36:15.428Z,98816.70
2023-08-02T02:41:18.285Z,98818.79
2023-08-02T02:46:21.101Z,98813.86
2023-08-02T02:51:24.006Z,98816.38
2023-08-02T02:56:26.975Z,98814.73
2023-08-02T03:01:29.921Z,98812.47
2023-08-02T03:06:32.798Z,98810.00
2023-08-02T03:12:12.109Z,98803.84
2023-08-02T03:17:24.080Z,98809.95
2023-08-02T03:22:26.858Z,98808.81
2023-08-02T03:27:30.114Z,98810.16
2023-08-02T03:32:32.907Z,98821.70
2023-08-02T03:37:35.768Z,98825.18
2023-08-02T03:42:38.491Z,98827.46
2023-08-02T03:47:41.744Z,98821.45
2023-08-02T03:52:44.646Z,98820.17
2023-08-02T03:57:47.391Z,98823.73
2023-08-02T04:02:50.308Z,98821.20
2023-08-02T04:07:53.669Z,98820.78
2023-08-02T04:12:56.460Z,98818.03
2023-08-02T04:17:59.376Z,98818.11
2023-08-02T04:23:04.601Z,98816.28
2023-08-02T04:28:08.090Z,98815.38
2023-08-02T04:33:10.963Z,98811.54
2023-08-02T04:38:13.989Z,98815.30
2023-08-02T04:43:16.740Z,98824.84
2023-08-02T04:48:19.619Z,98828.52
2023-08-02T04:53:22.536Z,98836.13
2023-08-02T04:58:25.375Z,98854.20
2023-08-02T05:03:28.224Z,98862.45
2023-08-02T05:08:33.448Z,98870.38
2023-08-02T05:13:36.456Z,98872.60
2023-08-02T05:18:39.410Z,98875.71
2023-08-02T05:23:43.384Z,98876.74
2023-08-02T05:28:46.245Z,98883.70
2023-08-02T05:33:49.566Z,98892.81
2023-08-02T05:38:52.697Z,98898.83
2023-08-02T05:43:55.503Z,98905.70
2023-08-02T05:48:58.446Z,98910.81
2023-08-02T05:54:01.351Z,98917.38
2023-08-02T05:59:04.288Z,98924.41
2023-08-02T06:04:07.378Z,98932.53
2023-08-02T06:09:10.711Z,98935.56
2023-08-02T06:14:14.750Z,98938.06
2023-08-02T06:19:17.726Z,98938.08
2023-08-02T06:24:22.873Z,98943.90
2023-08-02T06:29:25.873Z,98939.35
2023-08-02T06:34:29.057Z,98939.83
2023-08-02T06:39:33.705Z,98947.31
2023-08-02T06:44:36.943Z,98948.59
2023-08-02T06:49:41.200Z,98953.20
2023-08-02T06:54:44.352Z,98957.27
2023-08-02T06:59:47.490Z,98970.70
2023-08-02T07:04:50.536Z,98970.20
2023-08-02T07:09:56.512Z,98970.05
2023-08-02T07:14:59.392Z,98968.55
2023-08-02T07:20:03.071Z,98969.15
2023-08-02T07:25:06.889Z,98961.31
2023-08-02T07:30:10.297Z,98965.27
2023-08-02T07:35:13.311Z,98962.05
2023-08-02T07:40:16.224Z,98962.65
2023-08-02T07:45:19.351Z,98966.67
2023-08-02T07:50:22.565Z,98966.53
2023-08-02T07:55:25.578Z,98960.11
2023-08-02T08:00:56.710Z,98961.01
2023-08-02T08:06:16.783Z,98966.21
2023-08-02T08:11:21.690Z,98972.83
2023-08-02T08:16:26.242Z,98976.15
2023-08-02T08:21:29.152Z,98977.50
2023-08-02T08:26:32.045Z,98976.73
2023-08-02T08:31:35.138Z,98982.08
2023-08-02T08:36:38.188Z,98984.60
2023-08-02T08:41:41.373Z,98987.58
2023-08-02T08:46:45.996Z,98995.54
2023-08-02T08:51:53.889Z,98997.58
2023-08-02T08:56:57.961Z,98996.96
2023-08-02T09:02:01.197Z,99002.98
2023-08-02T09:07:04.447Z,99002.98
2023-08-02T09:12:10.287Z,99003.80
2023-08-02T09:17:16.506Z,99003.44
2023-08-02T09:22:19.743Z,98997.66
2023-08-02T09:27:22.630Z,98996.61
2023-08-02T09:32:27.177Z,98998.79
2023-08-02T09:37:37.135Z,98989.05
2023-08-02T09:42:40.169Z,98989.98
2023-08-02T09:47:52.816Z,98986.47
2023-08-02T09:52:56.646Z,98991.83
2023-08-02T09:58:01.365Z,98991.13
2023-08-02T10:03:15.637Z,98985.11
2023-08-02T10:08:23.928Z,98987.39
2023-08-02T10:13:31.522Z,98976.98
2023-08-02T10:18:35.653Z,98977.29
2023-08-02T10:23:39.320Z,98977.64
2023-08-02T10:28:42.731Z,98972.39
2023-08-02T10:33:45.738Z,98974.96
2023-08-02T10:38:50.591Z,98968.39
2023-08-02T10:43:55.150Z,98968.95
2023-08-02T10:49:18.835Z,98972.16
2023-08-02T10:54:24.381Z,98982.52
2023-08-02T10:59:30.465Z,98977.36
2023-08-02T11:04:37.519Z,98974.40
2023-08-02T11:09:42.464Z,98972.17
2023-08-02T11:14:51.395Z,98965.16
2023-08-02T11:25:01.484Z,98966.35
2023-08-02T11:30:08.636Z,98964.80
2023-08-02T11:35:19.430Z,98966.41
2023-08-02T11:40:26.656Z,98965.39
2023-08-02T11:45:31.581Z,98964.73
2023-08-02T11:50:36.402Z,98963.48
2023-08-02T11:55:41.134Z,98959.56
2023-08-02T12:00:45.466Z,98954.67
2023-08-02T12:05:48.473Z,98946.27
2023-08-02T12:10:52.529Z,98942.48
2023-08-02T12:16:07.477Z,98941.84
2023-08-02T12:21:16.844Z,98942.27
2023-08-02T12:26:34.477Z,98940.92
2023-08-02T12:31:43.310Z,98943.80
2023-08-02T12:36:49.129Z,98939.22
2023-08-02T12:41:52.249Z,98935.73
2023-08-02T12:46:55.170Z,98937.80
2023-08-02T12:51:58.059Z,98938.75
2023-08-02T12:57:00.992Z,98931.93
2023-08-02T13:02:04.313Z,98931.43
2023-08-02T13:07:07.524Z,98923.42
2023-08-02T13:12:13.992Z,98920.85
2023-08-02T13:17:21.056Z,98930.34
2023-08-02T13:22:25.301Z,98922.64
2023-08-02T13:27:34.284Z,98921.94
2023-08-02T13:32:39.574Z,98919.45
2023-08-02T13:37:43.234Z,98915.86
2023-08-02T13:42:46.655Z,98913.00
2023-08-02T13:47:49.738Z,98913.66
2023-08-02T13:52:52.773Z,98915.57
2023-08-02T13:57:55.912Z,98915.82
2023-08-02T14:02:59.025Z,98911.63
2023-08-02T14:08:02.045Z,98916.73
2023-08-02T14:13:04.897Z,98919.45
2023-08-02T14:18:07.883Z,98916.79
2023-08-02T14:23:11.182Z,98920.36
2023-08-02T14:28:14.147Z,98923.23
2023-08-02T14:33:18.013Z,98913.92
2023-08-02T14:38:21.078Z,98914.82
2023-08-02T14:43:24.017Z,98907.73
2023-08-02T14:48:28.155Z,98897.94
2023-08-02T14:53:31.151Z,98896.34
2023-08-02T14:58:34.215Z,98888.36
2023-08-02T15:03:37.105Z,98889.21
2023-08-02T15:08:40.060Z,98886.43
2023-08-02T15:13:43.204Z,98889.80
2023-08-02T15:18:46.890Z,98878.38
2023-08-02T15:23:51.382Z,98877.66
2023-08-02T15:28:54.959Z,98880.81
2023-08-02T15:33:57.953Z,98880.38
2023-08-02T15:39:01.138Z,98878.08
2023-08-02T15:44:04.708Z,98870.52
2023-08-02T15:49:07.749Z,98864.46
2023-08-02T15:54:10.806Z,98862.88
2023-08-02T15:59:16.635Z,98860.12
2023-08-02T16:04:19.747Z,98858.05
2023-08-02T16:09:22.869Z,98846.54
2023-08-02T16:14:26.740Z,98850.77
2023-08-02T16:19:32.764Z,98852.84
2023-08-02T16:24:37.212Z,98855.46
2023-08-02T16:29:40.057Z,98855.54
2023-08-02T16:34:43.389Z,98847.66
2023-08-02T16:39:46.295Z,98842.34
2023-08-02T16:44:49.193Z,98837.77
2023-08-02T16:49:52.091Z,98846.60
2023-08-02T16:54:55.062Z,98849.48
2023-08-02T16:59:58.008Z,98847.89
2023-08-02T17:05:00.841Z,98843.29
2023-08-02T17:10:04.649Z,98841.05
2023-08-02T17:15:07.983Z,98840.27
2023-08-02T17:20:12.082Z,98834.23
2023-08-02T17:25:15.731Z,98827.17
2023-08-02T17:30:18.950Z,98825.55
2023-08-02T17:35:21.854Z,98824.95
2023-08-02T17:40:24.920Z,98821.92
2023-08-02T17:45:28.069Z,98818.34
2023-08-02T17:50:31.126Z,98818.08
2023-08-02T17:55:34.213Z,98815.27
2023-08-02T18:00:40.004Z,98816.31
2023-08-02T18:05:42.888Z,98816.83
2023-08-02T18:10:45.854Z,98827.66
2023-08-02T18:15:48.790Z,98834.98
2023-08-02T18:20:51.655Z,98830.85
2023-08-02T18:25:55.026Z,98826.52
2023-08-02T18:31:05.762Z,98820.21
2023-08-02T18:36:14.602Z,98827.02
2023-08-02T18:41:20.084Z,98828.16
2023-08-02T18:46:23.001Z,98837.66
2023-08-02T18:51:25.936Z,98838.66
2023-08-02T18:56:28.798Z,98828.00
2023-08-02T19:01:31.794Z,98818.27
2023-08-02T19:06:35.025Z,98821.94
2023-08-02T19:11:37.986Z,98818.90
2023-08-02T19:16:41.341Z,98808.98
2023-08-02T19:21:50.849Z,98798.54
2023-08-02T19:26:53.981Z,98792.21
2023-08-02T19:32:00.345Z,98767.82
2023-08-02T19:37:06.506Z,98758.90
2023-08-02T19:42:15.154Z,98767.35
2023-08-02T19:47:25.020Z,98763.95
2023-08-02T19:52:32.165Z,98769.55
2023-08-02T19:57:44.876Z,98762.54
2023-08-02T20:02:48.495Z,98762.86
2023-08-02T20:07:51.668Z,98750.95
2023-08-02T20:12:57.138Z,98727.61
2023-08-02T20:18:00.713Z,98719.10
2023-08-02T20:23:06.934Z,98710.36
2023-08-02T20:28:13.286Z,98701.48
2023-08-02T20:33:16.128Z,98692.05
2023-08-02T20:38:19.145Z,98674.74
2023-08-02T20:43:22.017Z,98673.80
2023-08-02T20:48:24.924Z,98678.45
2023-08-02T20:53:27.857Z,98683.88
2023-08-02T20:58:31.274Z,98697.59
2023-08-02T21:03:37.858Z,98702.86
2023-08-02T21:08:43.739Z,98703.91
2023-08-02T21:13:46.697Z,98701.27
2023-08-02T21:18:55.406Z,98707.75
2023-08-02T21:23:59.526Z,98716.61
2023-08-02T21:29:04.867Z,98718.61
2023-08-02T21:34:17.121Z,98704.89
2023-08-02T21:39:20.928Z,98703.88
2023-08-02T21:44:30.405Z,98704.20
2023-08-02T21:49:33.687Z,98710.70
2023-08-02T21:54:36.932Z,98715.98
2023-08-02T21:59:39.845Z,98715.95
2023-08-02T22:04:45.245Z,98708.13
2023-08-02T22:09:54.846Z,98715.65
2023-08-02T22:15:03.514Z,98716.96
2023-08-02T22:20:07.566Z,98714.48
2023-08-02T22:25:10.420Z,98713.30
2023-08-02T22:30:13.777Z,98717.20
2023-08-02T22:35:16.640Z,98722.11
2023-08-02T22:40:19.629Z,98711.15
2023-08-02T22:45:23.683Z,98689.77
2023-08-02T22:55:32.764Z,98683.33
2023-08-02T23:00:36.345Z,98683.75
2023-08-02T23:05:44.487Z,98689.64
2023-08-02T23:10:47.524Z,98675.86
2023-08-02T23:15:50.408Z,98669.77
2023-08-02T23:20:54.231Z,98659.79
2023-08-02T23:26:01.748Z,98653.77
2023-08-02T23:31:07.489Z,98659.18
2023-08-02T23:36:10.327Z,98663.61
2023-08-02T23:41:13.297Z,98662.63
2023-08-02T23:46:18.369Z,98646.48
2023-08-02T23:51:21.735Z,98639.30
2023-08-02T23:56:24.602Z,98628.59
